• Join FlightAware (Why Join?)
  • Login
  • US Flag GB Flag 
06:33 EDT


 

Airport Tracker/Info


-or-


 

Live Flight TrackerFlight Track Log ✈ DAL268 ✈ 26-Apr-2013 ✈ KJFK - LLBG / TLV

Flight Track Log - Related Links

Times and Time Zones

All times are in EDT time to prevent confusion due to time zone crossing. See the DAL268 flight status page for this flight to view local times or setup timezone preferences in your user account.

Time Position Orientation Groundspeed Altitude Reporting Facility
EDT Latitude Longitude Course Direction KTS MPH feet Rate Location/Type
00:49 40.6440 -73.8080 303° West 181 208  Level FlightAware
00:49 40.6480 -73.8240 288° West 193 222 500 1,680 Climbing FlightAware
00:49 40.6410 -73.8600 256° West 224 258 1,300 1,500 Climbing FlightAware
00:50 40.6340 -73.8710 230° Southwest 239 275 1,500 1,440 Climbing FlightAware
00:50 40.6200 -73.8880 223° Southwest 253 291 1,900 1,380 Climbing FlightAware
00:50 40.6040 -73.8970 203° Southwest 262 302 2,200 1,200 Climbing FlightAware
00:50 40.5910 -73.8980 183° South 271 312 2,400 1,560 Climbing FlightAware
00:51 40.5660 -73.8910 168° South 282 325 3,000 1,680 Climbing FlightAware
00:51 40.5500 -73.8790 150° Southeast 289 333 3,400 1,920 Climbing FlightAware
00:51 40.5410 -73.8660 132° Southeast 290 334 3,800 2,820 Climbing FlightAware
00:51 40.5307 -73.8455 123° Southeast 291 335 4,400 3,180 Climbing FlightAware ADS-B
00:51 40.5288 -73.8408 118° Southeast 291 335 4,600 2,640 Climbing FlightAware ADS-B
00:51 40.5266 -73.8305 106° East 292 336 4,800 2,760 Climbing FlightAware ADS-B
00:51 40.5247 -73.8165 100° East 291 335 5,200 2,700 Climbing FlightAware ADS-B
00:51 40.5244 -73.8112 94° East 292 336 5,300 2,220 Climbing FlightAware ADS-B
00:52 40.5246 -73.8022 88° East 293 337 5,500 2,640 Climbing FlightAware ADS-B
00:52 40.5253 -73.7952 83° East 294 338 5,700 2,160 Climbing FlightAware ADS-B
00:52 40.5273 -73.7828 78° East 296 341 5,900 2,280 Climbing FlightAware ADS-B
00:52 40.5306 -73.7727 67° East 296 341 6,200 3,000 Climbing FlightAware ADS-B
00:52 40.5338 -73.7644 63° Northeast 297 342 6,500 2,640 Climbing FlightAware ADS-B
00:52 40.5359 -73.7597 60° Northeast 297 342 6,600 2,160 Climbing FlightAware ADS-B
00:52 40.5425 -73.7465 57° Northeast 299 344 6,900 2,520 Climbing FlightAware ADS-B
00:52 40.5481 -73.7397 43° Northeast 300 345 7,200 2,520 Climbing FlightAware ADS-B
00:52 40.5562 -73.7297 43° Northeast 302 348 7,500 2,340 Climbing FlightAware ADS-B
00:53 40.5736 -73.7110 39° Northeast 304 350 8,100 2,280 Climbing FlightAware ADS-B
00:53 40.5917 -73.6930 37° Northeast 310 357 8,700 2,340 Climbing FlightAware ADS-B
00:53 40.6061 -73.6802 34° Northeast 310 357 9,200 2,340 Climbing FlightAware ADS-B
00:53 40.6192 -73.6697 31° Northeast 312 359 9,600 1,800 Climbing FlightAware ADS-B
00:54 40.6613 -73.6415 27° Northeast 328 377 10,500 1,440 Climbing FlightAware ADS-B
00:54 40.7043 -73.6119 28° Northeast 346 398 11,100 1,080 Climbing FlightAware ADS-B
00:55 40.7750 -73.5627 28° Northeast 394 453 11,900 1,500 Climbing FlightAware ADS-B
00:56 40.8306 -73.5249 27° Northeast 405 466 13,100 2,040 Climbing FlightAware ADS-B
00:56 40.8810 -73.4879 29° Northeast 414 476 14,100 2,040 Climbing FlightAware ADS-B
00:57 40.9325 -73.4474 31° Northeast 420 483 15,200 2,040 Climbing FlightAware ADS-B
00:57 40.9840 -73.4080 30° Northeast 427 491 16,200 1,860 Climbing FlightAware ADS-B
00:58 41.0365 -73.3683 30° Northeast 434 499 17,100 1,680 Climbing FlightAware ADS-B
00:58 41.0985 -73.3211 30° Northeast 441 507 18,100 1,620 Climbing FlightAware ADS-B
00:59 41.1541 -73.2784 30° Northeast 452 520 18,900 1,620 Climbing FlightAware ADS-B
00:59 41.2089 -73.2365 30° Northeast 457 526 19,800 1,680 Climbing FlightAware ADS-B
01:00 41.2766 -73.1840 30° Northeast 461 531 20,800 1,560 Climbing FlightAware ADS-B
01:00 41.3325 -73.1409 30° Northeast 467 537 21,600 1,500 Climbing FlightAware ADS-B
01:01 41.3938 -73.0928 30° Northeast 471 542 22,400 1,440 Climbing FlightAware ADS-B
01:01 41.4556 -73.0442 31° Northeast 473 544 23,200 1,380 Climbing FlightAware ADS-B
01:02 41.5245 -72.9904 30° Northeast 473 544 24,000 1,200 Climbing FlightAware ADS-B
01:03 41.5839 -72.9451 30° Northeast 487 560 24,600 1,140 Climbing FlightAware ADS-B
01:03 41.6442 -72.8976 30° Northeast 492 566 25,200 1,020 Climbing FlightAware ADS-B
01:05 41.8890 -72.7050 30° Northeast 507 583 27,600 780 Climbing FlightAware
01:06 41.9550 -72.6540 30° Northeast 507 583 27,600 1,380 Level FlightAware
01:07 42.0980 -72.5380 31° Northeast 503 579 29,700 1,800 Climbing FlightAware
01:08 42.1770 -72.4760 30° Northeast 500 575 30,500 1,020 Climbing FlightAware
01:08 42.2570 -72.4120 31° Northeast 502 578 31,100 420 Climbing FlightAware
01:09 42.3450 -72.3400 31° Northeast 503 579 31,100  Level FlightAware
01:10 42.4260 -72.2750 31° Northeast 501 577 31,100  Level FlightAware
01:10 42.5040 -72.2120 31° Northeast 500 575 31,100  Level FlightAware
01:11 42.5960 -72.1370 31° Northeast 499 574 31,100  Level FlightAware
01:12 42.6760 -72.0720 31° Northeast 499 574 31,100  Level FlightAware
01:12 42.7640 -72.0010 31° Northeast 500 575 31,100  Level FlightAware
01:13 42.8420 -71.9380 31° Northeast 498 573 31,100  Level FlightAware
01:14 42.9210 -71.8730 31° Northeast 498 573 31,100  Level FlightAware
01:15 43.0130 -71.7960 31° Northeast 499 574 31,100 -120 Level FlightAware
01:15 43.0910 -71.7310 31° Northeast 500 575 31,000  Descending FlightAware
01:16 43.1690 -71.6670 31° Northeast 497 572 31,100 60 Climbing FlightAware
01:17 43.2560 -71.5940 31° Northeast 492 566 31,100  Level FlightAware
01:17 43.3350 -71.5290 31° Northeast 493 567 31,100  Level FlightAware
01:18 43.4250 -71.4530 32° Northeast 494 568 31,100  Level FlightAware
01:19 43.5010 -71.3890 31° Northeast 497 572 31,100  Level FlightAware
01:19 43.5910 -71.3130 31° Northeast 499 574 31,100 -120 Level FlightAware
01:20 43.6700 -71.2460 32° Northeast 500 575 31,000  Descending FlightAware
01:21 43.7480 -71.1810 31° Northeast 501 577 31,100 60 Climbing FlightAware
01:22 43.8370 -71.1050 32° Northeast 502 578 31,100  Level FlightAware
01:22 43.9140 -71.0390 32° Northeast 499 574 31,100  Level FlightAware
01:23 43.9940 -70.9710 31° Northeast 497 572 31,100  Level FlightAware
01:24 44.0820 -70.8950 32° Northeast 496 571 31,100  Level FlightAware
01:24 44.1620 -70.8260 32° Northeast 498 573 31,100  Level FlightAware
01:25 44.2470 -70.7530 32° Northeast 500 575 31,100 -120 Level FlightAware
01:26 44.3260 -70.6850 32° Northeast 500 575 31,000  Descending FlightAware
01:26 44.4060 -70.6140 32° Northeast 500 575 31,100 60 Climbing FlightAware
01:27 44.4960 -70.5360 32° Northeast 498 573 31,100  Level FlightAware
01:28 44.5610 -70.4770 33° Northeast 498 573 31,100  Level FlightAware
01:28 44.6510 -70.3990 32° Northeast 497 572 31,100  Level FlightAware
01:29 44.7370 -70.3230 32° Northeast 498 573 31,100  Level FlightAware
01:30 44.8340 -70.2380 32° Northeast 498 573 31,100  Level FlightAware
01:31 44.9000 -70.1790 32° Northeast 498 573 31,100  Level FlightAware
01:31 44.9940 -70.0960 32° Northeast 499 574 31,100  Level FlightAware
01:32 45.0890 -70.0100 33° Northeast 500 575 31,100  Level FlightAware
01:33 45.1760 -69.9310 33° Northeast 500 575 31,100  Level FlightAware
01:34 45.2560 -69.8610 32° Northeast 499 574 31,100  Level FlightAware
01:34 45.3430 -69.7800 33° Northeast 497 572 31,100  Level FlightAware
01:35 45.4200 -69.7100 33° Northeast 496 571 31,100  Level FlightAware
01:36 45.4970 -69.6410 32° Northeast 496 571 31,100  Level FlightAware
01:36 45.5840 -69.5620 32° Northeast 495 570 31,100  Level FlightAware
01:37 45.6700 -69.4830 33° Northeast 495 570 31,100  Level FlightAware
01:38 45.7460 -69.4120 33° Northeast 494 568 31,100  Level FlightAware
01:39 45.8230 -69.3410 33° Northeast 493 567 31,100  Level FlightAware
01:39 45.9090 -69.2610 33° Northeast 495 570 31,100  Level FlightAware
01:40 45.9860 -69.1900 33° Northeast 494 568 31,100  Level FlightAware
01:40 46.0430 -69.1360 33° Northeast 494 568 31,100  Level FlightAware
01:41 46.1290 -69.0560 33° Northeast 494 568 31,100  Level FlightAware
01:42 46.2060 -68.9840 33° Northeast 494 568 31,100  Level FlightAware
01:43 46.2830 -68.9100 34° Northeast 493 567 31,100  Level FlightAware
01:43 46.3690 -68.8280 33° Northeast 494 568 31,100 -120 Level FlightAware
01:44 46.4350 -68.7670 32° Northeast 495 570 31,000  Descending FlightAware
01:45 46.5210 -68.6850 33° Northeast 496 571 31,100  Climbing FlightAware
01:45 46.5870 -68.6210 34° Northeast 497 572 31,000  Descending FlightAware
01:46 46.6660 -68.5450 33° Northeast 495 570 31,100  Climbing FlightAware
01:47 46.7660 -68.4490 33° Northeast 497 572 31,000 -120 Descending FlightAware
01:47 46.8430 -68.3750 33° Northeast 499 574 31,000 60 Level FlightAware
01:48 46.9200 -68.3000 34° Northeast 500 575 31,100 60 Climbing FlightAware
01:49 47.0070 -68.2160 33° Northeast 501 577 31,100  Level FlightAware
01:50 47.0950 -68.1300 34° Northeast 502 578 31,100  Level FlightAware
01:51 47.1780 -68.0510 33° Northeast 502 578 31,100  Level FlightAware
01:51 47.2280 -68.0030 33° Northeast 502 578 31,100 -120 Level FlightAware
01:51 47.0530 -68.1700 213° Southwest 31,100 -120 Level FlightAware
01:52 47.3664 -67.8597 213° Southwest 496 571 31,000 -60 Descending Boston Center
01:53 47.5064 -67.7128 35° Northeast 496 571 31,000  Level Boston Center
01:54 47.6269 -67.6067 31° Northeast 496 571 31,000  Level Boston Center
01:55 47.7450 -67.4883 34° Northeast 507 583 31,000  Level Boston Center
01:56 47.8628 -67.3692 34° Northeast 507 583 31,000  Level Boston Center
01:57 47.9783 -67.2497 35° Northeast 507 583 31,000  Level Boston Center
01:58 48.0981 -67.1325 33° Northeast 507 583 31,000  Level Boston Center
01:59 48.2153 -67.0119 34° Northeast 507 583 31,000  Level Boston Center
02:00 48.3167 -66.8833 40° Northeast 520 598 31,000  Level Gander Center
02:00 48.3500 -66.8667 18° North 520 598 31,000  Level Moncton Center
02:01 48.4500 -66.7500 38° Northeast 520 598 31,000  Level Moncton Center
02:02 48.5667 -66.6000 40° Northeast 520 598 31,000  Level Moncton Center
02:03 48.6833 -66.5000 29° Northeast 510 587 31,000  Level Moncton Center
02:04 48.8000 -66.3500 40° Northeast 520 598 31,000  Level Moncton Center
02:05 48.9167 -66.2333 33° Northeast 520 598 31,000  Level Moncton Center
02:06 49.0500 -66.1167 30° Northeast 520 598 31,000  Level Moncton Center
02:07 49.1667 -65.9833 37° Northeast 520 598 31,000  Level Moncton Center
02:08 49.2833 -65.8333 40° Northeast 520 598 31,000  Level Moncton Center
02:09 49.4000 -65.7333 29° Northeast 520 598 31,000  Level Moncton Center
02:10 49.5167 -65.5833 40° Northeast 520 598 31,000  Level Moncton Center
02:11 49.6333 -65.4500 36° Northeast 520 598 31,000  Level Moncton Center
02:12 49.7167 -65.3667 33° Northeast 520 598 31,000  Level Gander Center
02:13 49.8333 -65.2167 40° Northeast 520 598 31,000  Level Gander Center
02:14 49.9500 -65.1000 33° Northeast 520 598 31,000  Level Gander Center
02:15 50.0833 -64.9500 36° Northeast 520 598 31,000  Level Gander Center
02:16 50.1833 -64.8333 37° Northeast 520 598 31,000  Level Gander Center
02:17 50.3167 -64.6833 36° Northeast 520 598 31,000  Level Gander Center
02:18 50.4167 -64.5667 37° Northeast 530 610 31,000  Level Gander Center
02:19 50.5333 -64.4167 39° Northeast 530 610 31,000  Level Gander Center
02:19 50.5667 -64.3500 52° Northeast 530 610 31,000  Level Moncton Center
02:20 50.6500 -64.1833 52° Northeast 530 610 31,000  Level Moncton Center
02:21 50.7167 -64.0500 52° Northeast 540 621 31,000  Level Gander Center
02:22 50.8333 -63.8833 42° Northeast 540 621 31,100  Climbing Gander Center
02:22 50.8500 -63.8167 68° East 540 621 31,000 -120 Descending Moncton Center
02:23 50.9500 -63.6500 46° Northeast 540 621 31,000  Level Moncton Center
02:24 51.0167 -63.5167 51° Northeast 530 610 31,000  Level Gander Center
02:25 51.1167 -63.3333 49° Northeast 540 621 31,000  Level Gander Center
02:25 51.1500 -63.3000 32° Northeast 540 621 31,000  Level Moncton Center
02:26 51.2000 -63.1500 62° Northeast 540 621 31,000  Level Gander Center
02:27 51.3167 -62.9667 44° Northeast 540 621 31,000  Level Gander Center
02:28 51.4167 -62.7833 49° Northeast 550 633 31,000  Level Gander Center
02:29 51.5167 -62.6000 49° Northeast 550 633 31,000  Level Gander Center
02:30 51.6167 -62.3833 53° Northeast 560 644 31,000  Level Gander Center
02:30 51.6333 -62.3500 51° Northeast 560 644 31,000  Level Moncton Center
02:31 51.7000 -62.2000 54° Northeast 560 644 31,000  Level Gander Center
02:32 51.8167 -62.0167 44° Northeast 560 644 31,000  Level Gander Center
02:33 51.9000 -61.8167 56° Northeast 560 644 31,000  Level Gander Center
02:33 51.9333 -61.7667 43° Northeast 560 644 31,000  Level Moncton Center
02:34 52.0333 -61.5667 51° Northeast 560 644 31,000  Level Moncton Center
02:35 52.1333 -61.3667 51° Northeast 560 644 31,000  Level Moncton Center
02:36 52.2167 -61.2333 44° Northeast 570 656 31,000  Level Gander Center
02:37 52.3167 -61.0167 53° Northeast 570 656 31,000  Level Gander Center
02:38 52.4167 -60.8167 51° Northeast 570 656 31,000  Level Gander Center
02:39 52.5000 -60.6000 58° Northeast 570 656 31,000  Level Gander Center
02:40 52.6000 -60.4000 50° Northeast 570 656 31,000  Level Gander Center
02:41 52.7000 -60.2000 50° Northeast 570 656 31,000  Level Gander Center
02:42 52.8000 -59.9833 53° Northeast 570 656 31,000  Level Gander Center
02:43 52.9000 -59.7833 50° Northeast 570 656 31,000  Level Gander Center
02:44 53.0000 -59.5667 52° Northeast 580 667 31,000  Level Gander Center
02:45 53.1000 -59.3667 50° Northeast 580 667 31,100 240 Climbing Gander Center
02:46 53.2000 -59.1333 54° Northeast 580 667 31,500 300 Climbing Gander Center
02:47 53.2833 -58.9333 55° Northeast 580 667 31,800 300 Climbing Gander Center
02:48 53.3833 -58.7000 54° Northeast 580 667 32,100 300 Climbing Gander Center
02:49 53.4833 -58.5000 50° Northeast 580 667 32,400 300 Climbing Gander Center
02:50 53.5833 -58.2667 54° Northeast 580 667 32,700 300 Climbing Gander Center
02:51 53.6667 -58.0667 55° Northeast 580 667 33,000 120 Climbing Gander Center
02:52 53.7833 -57.8333 50° Northeast 580 667 33,000  Level Gander Center
02:53 53.8667 -57.6167 57° Northeast 580 667 33,000  Level Gander Center
02:54 53.9667 -57.3833 54° Northeast 580 667 33,000  Level Gander Center
02:54 53.9833 -57.3333 60° Northeast 590 679 33,000  Level Moncton Center
02:55 54.0833 -57.1333 50° Northeast 580 667 33,000  Level Moncton Center
02:56 54.1500 -56.9500 58° Northeast 590 679 33,000  Level Gander Center
02:57 54.2500 -56.7333 52° Northeast 590 679 33,000  Level Gander Center
02:57 54.2667 -56.6667 67° East 590 679 33,000  Level Moncton Center
02:58 54.3333 -56.5000 56° Northeast 590 679 33,000  Level Gander Center
02:59 54.4333 -56.2500 55° Northeast 580 667 33,000  Level Gander Center
03:00 54.5167 -56.0333 56° Northeast 580 667 33,000  Level Gander Center
03:01 54.6333 -55.8000 49° Northeast 580 667 33,100  Climbing Gander Center
03:02 54.6167 -55.8667 65° Northeast 565 650 33,000 -120 Descending ETMS Enhanced Traffic Management System
03:02 54.6833 -55.5500 65° Northeast 580 667 33,000  Level Gander Center
03:03 54.7500 -55.2833 66° East 570 656 33,000  Level Gander Center
03:04 54.8167 -55.0500 64° Northeast 570 656 33,000  Level Gander Center
03:05 54.8833 -54.8000 65° Northeast 570 656 33,000  Level Gander Center
03:05 54.9000 -54.7000 74° East 570 656 33,000  Level Moncton Center
03:07 55.0000 -54.2833 67° East 570 656 33,000  Level Gander Center
03:08 55.0667 -54.0333 65° Northeast 570 656 33,000  Level Gander Center
03:09 55.1333 -53.8000 63° Northeast 570 656 33,000 60 Level Gander Center
03:10 55.1667 -53.6167 72° East 570 656 33,100  Climbing Gander Center
03:10 55.2000 -53.5167 60° Northeast 570 656 33,000 -120 Descending Gander Center
03:11 55.2667 -53.2667 65° Northeast 570 656 33,000  Level Gander Center
03:12 55.3167 -53.0167 71° East 570 656 33,000  Level Gander Center
03:13 55.3833 -52.7500 66° East 570 656 33,000  Level Gander Center
03:14 55.4500 -52.4833 66° East 570 656 33,000  Level Gander Center
03:15 55.4667 -52.3333 79° East 570 656 33,000 60 Level Gander Center
03:16 55.5333 -52.0833 65° Northeast 570 656 33,100  Climbing Gander Center
03:16 55.5500 -51.9667 76° East 570 656 33,000 -120 Descending Gander Center
03:17 55.5833 -51.8000 70° East 570 656 33,000  Level Gander Center
03:19 55.6602 -51.4790 67° East  Level FlightAware Approximate
03:25 56.0000 -50.0000 66° East 549 632 33,000  Level ETMS Enhanced Traffic Management System
03:26 56.0218 -49.9131 66° East  Level FlightAware Approximate
03:27 56.0772 -49.6911 66° East  Level FlightAware Approximate
03:28 56.1321 -49.4684 66° East  Level FlightAware Approximate
03:29 56.1867 -49.2451 66° East  Level FlightAware Approximate
03:30 56.2408 -49.0212 66° East  Level FlightAware Approximate
03:31 56.2946 -48.7967 67° East  Level FlightAware Approximate
03:32 56.4861 -47.9860 67° East 549 632 33,000  Level FlightAware Transoceanic
03:33 56.5445 -47.7307 68° East 549 632 33,000  Level FlightAware Transoceanic
03:34 56.6025 -47.4746 68° East 549 632 33,000  Level FlightAware Transoceanic
03:35 56.6598 -47.2177 68° East 549 632 33,000  Level FlightAware Transoceanic
03:36 56.7167 -46.9600 68° East 549 632 33,000  Level FlightAware Transoceanic
03:37 56.7730 -46.7015 68° East 549 632 33,000  Level FlightAware Transoceanic
03:38 56.8288 -46.4423 69° East 549 632 33,000  Level FlightAware Transoceanic
03:39 56.8841 -46.1823 69° East 549 632 33,000  Level FlightAware Transoceanic
03:40 56.9388 -45.9216 69° East 549 632 33,000  Level FlightAware Transoceanic
03:41 56.9929 -45.6600 69° East 549 632 33,000  Level FlightAware Transoceanic
03:42 57.0466 -45.3978 70° East 549 632 33,000  Level FlightAware Transoceanic
03:43 57.0996 -45.1347 70° East 549 632 33,000  Level FlightAware Transoceanic
03:44 57.1521 -44.8709 70° East 549 632 33,000  Level FlightAware Transoceanic
03:45 57.2041 -44.6064 70° East 549 632 33,000  Level FlightAware Transoceanic
03:46 57.2555 -44.3411 70° East 549 632 33,000  Level FlightAware Transoceanic
03:47 57.3064 -44.0751 71° East 549 632 33,000  Level FlightAware Transoceanic
03:48 57.3566 -43.8084 71° East 549 632 33,000  Level FlightAware Transoceanic
03:49 57.4063 -43.5409 71° East 549 632 33,000  Level FlightAware Transoceanic
03:50 57.4555 -43.2727 71° East 549 632 33,000  Level FlightAware Transoceanic
03:51 57.5041 -43.0038 72° East 549 632 33,000  Level FlightAware Transoceanic
03:52 57.5521 -42.7342 72° East 549 632 33,000  Level FlightAware Transoceanic
03:53 57.5995 -42.4639 72° East 549 632 33,000  Level FlightAware Transoceanic
03:54 57.6464 -42.1928 72° East 549 632 33,000  Level FlightAware Transoceanic
03:55 57.6926 -41.9211 72° East 549 632 33,000  Level FlightAware Transoceanic
03:56 57.7383 -41.6487 73° East 549 632 33,000  Level FlightAware Transoceanic
03:57 57.7834 -41.3756 73° East 549 632 33,000  Level FlightAware Transoceanic
03:58 57.8279 -41.1018 73° East 549 632 33,000  Level FlightAware Transoceanic
03:59 57.8718 -40.8273 73° East 549 632 33,000  Level FlightAware Transoceanic
04:00 57.9151 -40.5522 74° East 549 632 33,000  Level FlightAware Transoceanic
04:01 57.9579 -40.2764 74° East 549 632 33,000  Level FlightAware Transoceanic
04:02 57.9954 -40.0303 74° East  Level FlightAware Approximate
04:03 58.0325 -39.7837 74° East  Level FlightAware Approximate
04:04 58.0074 -39.8074 86° East  Level FlightAware Approximate
04:04 58.0000 -40.0000 86° East 529 609 33,000  Level ETMS Enhanced Traffic Management System
04:05 58.0168 -39.5512 86° East  Level FlightAware Approximate
04:06 58.0257 -39.2950 86° East  Level FlightAware Approximate
04:07 58.0341 -39.0386 86° East  Level FlightAware Approximate
04:08 58.0420 -38.7821 87° East  Level FlightAware Approximate
04:09 58.0494 -38.5255 87° East  Level FlightAware Approximate
04:10 58.0735 -37.5034 88° East 529 609 33,000  Level FlightAware Transoceanic
04:11 58.0787 -37.2255 88° East 529 609 33,000  Level FlightAware Transoceanic
04:12 58.0832 -36.9475 88° East 529 609 33,000  Level FlightAware Transoceanic
04:13 58.0872 -36.6694 89° East 529 609 33,000  Level FlightAware Transoceanic
04:14 58.0905 -36.3912 89° East 529 609 33,000  Level FlightAware Transoceanic
04:15 58.0932 -36.1130 89° East 529 609 33,000  Level FlightAware Transoceanic
04:16 58.0954 -35.8348 89° East 529 609 33,000  Level FlightAware Transoceanic
04:17 58.0969 -35.5566 90° East 529 609 33,000  Level FlightAware Transoceanic
04:18 58.0978 -35.2783 90° East 529 609 33,000  Level FlightAware Transoceanic
04:19 58.0981 -35.0000 90° East 529 609 33,000  Level FlightAware Transoceanic
04:20 58.0978 -34.7217 90° East 529 609 33,000  Level FlightAware Transoceanic
04:21 58.0969 -34.4434 90° East 529 609 33,000  Level FlightAware Transoceanic
04:22 58.0954 -34.1652 91° East 529 609 33,000  Level FlightAware Transoceanic
04:23 58.0932 -33.8870 91° East 529 609 33,000  Level FlightAware Transoceanic
04:24 58.0905 -33.6088 91° East 529 609 33,000  Level FlightAware Transoceanic
04:25 58.0872 -33.3306 91° East 529 609 33,000  Level FlightAware Transoceanic
04:26 58.0832 -33.0525 92° East 529 609 33,000  Level FlightAware Transoceanic
04:27 58.0787 -32.7745 92° East 529 609 33,000  Level FlightAware Transoceanic
04:28 58.0735 -32.4966 92° East 529 609 33,000  Level FlightAware Transoceanic
04:29 58.0678 -32.2187 92° East 529 609 33,000  Level FlightAware Transoceanic
04:30 58.0614 -31.9409 93° East 529 609 33,000  Level FlightAware Transoceanic
04:31 58.0545 -31.6633 93° East 529 609 33,000  Level FlightAware Transoceanic
04:32 58.0469 -31.3857 93° East 529 609 33,000  Level FlightAware Transoceanic
04:33 58.0387 -31.1083 93° East 529 609 33,000  Level FlightAware Transoceanic
04:34 58.0299 -30.8310 94° East 529 609 33,000  Level FlightAware Transoceanic
04:35 58.0206 -30.5539 94° East 529 609 33,000  Level FlightAware Transoceanic
04:36 58.0106 -30.2768 94° East 529 609 33,000  Level FlightAware Transoceanic
04:37 58.0008 -30.0208 94° East  Level FlightAware Approximate
04:38 57.9905 -29.7649 94° East  Level FlightAware Approximate
04:39 57.9869 -29.7865 96° East  Level FlightAware Approximate
04:39 58.0000 -30.0000 96° East 531 611 33,000  Level ETMS Enhanced Traffic Management System
04:40 57.9709 -29.5318 97° East  Level FlightAware Approximate
04:41 57.9543 -29.2774 97° East  Level FlightAware Approximate
04:42 57.9372 -29.0231 97° East  Level FlightAware Approximate
04:43 57.9196 -28.7691 97° East  Level FlightAware Approximate
04:44 57.9015 -28.5154 98° East  Level FlightAware Approximate
04:45 57.8301 -27.5201 98° East 531 611 33,000  Level FlightAware Transoceanic
04:46 57.8083 -27.2461 99° East 531 611 33,000  Level FlightAware Transoceanic
04:47 57.7858 -26.9724 99° East 531 611 33,000  Level FlightAware Transoceanic
04:48 57.7628 -26.6991 99° East 531 611 33,000  Level FlightAware Transoceanic
04:49 57.7392 -26.4261 99° East 531 611 33,000  Level FlightAware Transoceanic
04:50 57.7150 -26.1535 100° East 531 611 33,000  Level FlightAware Transoceanic
04:51 57.6902 -25.8812 100° East 531 611 33,000  Level FlightAware Transoceanic
04:52 57.6648 -25.6093 100° East 531 611 33,000  Level FlightAware Transoceanic
04:53 57.6389 -25.3378 100° East 531 611 33,000  Level FlightAware Transoceanic
04:54 57.6124 -25.0667 100° East 531 611 33,000  Level FlightAware Transoceanic
04:55 57.5853 -24.7960 101° East 531 611 33,000  Level FlightAware Transoceanic
04:56 57.5576 -24.5257 101° East 531 611 33,000  Level FlightAware Transoceanic
04:57 57.5293 -24.2559 101° East 531 611 33,000  Level FlightAware Transoceanic
04:58 57.5005 -23.9864 101° East 531 611 33,000  Level FlightAware Transoceanic
04:59 57.4711 -23.7174 102° East 531 611 33,000  Level FlightAware Transoceanic
05:00 57.4411 -23.4488 102° East 531 611 33,000  Level FlightAware Transoceanic
05:01 57.4105 -23.1806 102° East 531 611 33,000  Level FlightAware Transoceanic
05:02 57.3794 -22.9129 102° East 531 611 33,000  Level FlightAware Transoceanic
05:03 57.3477 -22.6457 103° East 531 611 33,000  Level FlightAware Transoceanic
05:04 57.3154 -22.3789 103° East 531 611 33,000  Level FlightAware Transoceanic
05:05 57.2826 -22.1126 103° East 531 611 33,000  Level FlightAware Transoceanic
05:06 57.2492 -21.8468 103° East 531 611 33,000  Level FlightAware Transoceanic
05:07 57.2153 -21.5815 103° East 531 611 33,000  Level FlightAware Transoceanic
05:08 57.1808 -21.3166 104° East 531 611 33,000  Level FlightAware Transoceanic
05:09 57.1457 -21.0523 104° East 531 611 33,000  Level FlightAware Transoceanic
05:10 57.1101 -20.7884 104° East 531 611 33,000  Level FlightAware Transoceanic
05:11 57.0740 -20.5251 104° East 531 611 33,000  Level FlightAware Transoceanic
05:12 57.0373 -20.2623 105° East 531 611 33,000  Level FlightAware Transoceanic
05:13 57.0020 -20.0139 105° East  Level FlightAware Approximate
05:14 56.9662 -19.7660 105° East  Level FlightAware Approximate
05:15 56.9783 -19.7757 100° East  Level FlightAware Approximate
05:16 56.9534 -19.5235 100° East  Level FlightAware Approximate
05:17 56.9281 -19.2716 100° East  Level FlightAware Approximate
05:18 56.9022 -19.0200 101° East  Level FlightAware Approximate
05:19 56.8758 -18.7688 101° East  Level FlightAware Approximate
05:20 56.8489 -18.5180 101° East  Level FlightAware Approximate
05:21 56.8214 -18.2675 101° East  Level FlightAware Approximate
05:22 56.7935 -18.0174 101° East  Level FlightAware Approximate
05:23 56.7651 -17.7677 102° East  Level FlightAware Approximate
05:24 56.7362 -17.5183 102° East  Level FlightAware Approximate
05:25 56.7068 -17.2694 102° East  Level FlightAware Approximate
05:26 56.6769 -17.0208 102° East  Level FlightAware Approximate
05:27 56.6465 -16.7726 102° East  Level FlightAware Approximate
05:28 56.6157 -16.5248 103° East  Level FlightAware Approximate
05:29 56.5843 -16.2775 103° East  Level FlightAware Approximate
05:30 56.5524 -16.0305 103° East  Level FlightAware Approximate
05:31 56.5201 -15.7840 103° East  Level FlightAware Approximate
05:32 56.4872 -15.5379 103° East  Level FlightAware Approximate
05:33 56.4539 -15.2922 104° East  Level FlightAware Approximate
05:34 56.4201 -15.0469 104° East  Level FlightAware Approximate
05:35 56.3858 -14.8021 104° East  Level FlightAware Approximate
05:36 56.3510 -14.5577 104° East  Level FlightAware Approximate
05:37 56.3158 -14.3138 105° East  Level FlightAware Approximate
05:38 56.2800 -14.0704 105° East  Level FlightAware Approximate
05:39 56.2438 -13.8274 105° East  Level FlightAware Approximate
05:40 56.2071 -13.5848 105° East  Level FlightAware Approximate
05:41 56.1700 -13.3427 105° East  Level FlightAware Approximate
05:42 56.1324 -13.1011 106° East  Level FlightAware Approximate
05:43 56.0942 -12.8600 106° East  Level FlightAware Approximate
05:44 56.0557 -12.6194 106° East  Level FlightAware Approximate
05:45 56.0166 -12.3792 106° East  Level FlightAware Approximate
05:46 55.9771 -12.1395 106° East  Level FlightAware Approximate
05:46 56.0210 -11.6040 107° East 499 574 33,100  Level FlightAware
05:47 55.9372 -11.9003 107° East  Level FlightAware Approximate
05:47 56.0200 -11.3740 90° East 498 573 33,100  Level FlightAware
05:48 56.0180 -11.1810 91° East 497 572 33,100  Level FlightAware
05:48 56.0160 -11.0220 91° East 495 570 33,100  Level FlightAware
05:49 56.0140 -10.8430 91° East 494 568 33,100  Level FlightAware
05:50 56.0120 -10.6720 91° East 493 567 33,100  Level FlightAware
05:50 56.0090 -10.5140 92° East 492 566 33,100  Level FlightAware
05:51 56.0010 -10.3310 94° East 510 587 33,100 -120 Level FlightAware
05:52 55.9580 -10.1740 116° Southeast 533 613 33,000  Descending FlightAware
05:52 55.9060 -10.0190 121° Southeast 537 618 33,100 60 Climbing FlightAware
05:53 55.8460 -9.8510 122° Southeast 532 612 33,100  Level FlightAware
05:54 55.7930 -9.6980 122° Southeast 532 612 33,100  Level FlightAware
05:55 55.6670 -9.3330 109° East 529 609 33,100  Level FlightAware
05:56 55.7154 -9.2947 109° East  Level Estimated
05:56 55.6150 -9.1890 123° Southeast 528 608 33,100  Level FlightAware
05:57 55.5570 -9.0230 122° Southeast 527 606 33,100 -1,500 Level FlightAware
05:57 55.5245 -8.9270 122° Southeast 492 566 31,500 -2,580 Descending FlightAware UK
05:58 55.5014 -8.8605 122° Southeast 492 566 31,500 4,800 Level FlightAware UK
05:58 55.5050 -8.8720 122° Southeast 526 605 33,100  Climbing FlightAware
05:58 55.4781 -8.7944 122° Southeast 490 564 31,500 -2,880 Descending FlightAware UK
05:58 55.4547 -8.7285 122° Southeast 490 564 31,500 3,960 Level FlightAware UK
05:58 55.4520 -8.7260 122° Southeast 526 605 33,100  Climbing FlightAware
05:59 55.4230 -8.6405 122° Southeast 490 564 31,500 -2,700 Descending FlightAware UK
05:59 55.3995 -8.5750 122° Southeast 490 564 31,500 3,540 Level FlightAware UK
05:59 55.3940 -8.5620 122° Southeast 525 604 33,100  Climbing FlightAware
05:59 55.3683 -8.4878 122° Southeast 490 564 31,500 -2,940 Descending FlightAware UK
06:00 55.3447 -8.4225 122° Southeast 490 564 31,500 3,840 Level FlightAware UK
06:00 55.3430 -8.4200 122° Southeast 525 604 33,100  Climbing FlightAware
06:00 55.3133 -8.3357 122° Southeast 490 564 31,500 -2,760 Descending FlightAware UK
06:00 55.2897 -8.2705 122° Southeast 492 566 31,500 4,140 Level FlightAware UK
06:00 55.2860 -8.2600 122° Southeast 525 604 33,100  Climbing FlightAware
06:01 55.2581 -8.1838 122° Southeast 490 564 31,500 -2,640 Descending FlightAware UK
06:01 55.2343 -8.1189 123° Southeast 490 564 31,500 3,660 Level FlightAware UK
06:01 55.2320 -8.1120 123° Southeast 525 604 33,100  Climbing FlightAware
06:01 55.2026 -8.0324 123° Southeast 492 566 31,500 -2,880 Descending FlightAware UK
06:02 55.1789 -7.9676 123° Southeast 492 566 31,500 3,960 Level FlightAware UK
06:02 55.1780 -7.9650 123° Southeast 524 603 33,100  Climbing FlightAware
06:02 55.1393 -7.8598 123° Southeast 490 564 31,500 -2,340 Descending FlightAware UK
06:02 55.1155 -7.7953 123° Southeast 494 568 31,500 4,560 Level FlightAware UK
06:02 55.1180 -7.8030 123° Southeast 523 602 33,100  Climbing FlightAware
06:03 55.0917 -7.7310 123° Southeast 494 568 31,500 -2,940 Descending FlightAware UK
06:03 55.0678 -7.6670 123° Southeast 492 566 31,500 3,600 Level FlightAware UK
06:03 55.0640 -7.6570 123° Southeast 522 601 33,000  Climbing FlightAware
06:03 55.0359 -7.5816 123° Southeast 492 566 31,500 -2,580 Descending FlightAware UK
06:04 55.0121 -7.5178 123° Southeast 492 566 31,500 3,420 Level FlightAware UK
06:04 55.0040 -7.4970 123° Southeast 526 605 33,100  Climbing FlightAware
06:04 54.9723 -7.4115 123° Southeast 492 566 31,500 -2,580 Descending FlightAware UK
06:05 54.9482 -7.3470 123° Southeast 492 566 31,500 4,800 Level FlightAware UK
06:05 54.9500 -7.3550 123° Southeast 528 608 33,100  Climbing FlightAware
06:05 54.9243 -7.2831 123° Southeast 492 566 31,500 -2,880 Descending FlightAware UK
06:05 54.9001 -7.2194 123° Southeast 492 566 31,500 3,720 Level FlightAware UK
06:05 54.8970 -7.2100 123° Southeast 527 606 33,000  Climbing FlightAware
06:06 54.8679 -7.1347 123° Southeast 492 566 31,500 -2,520 Descending FlightAware UK
06:06 54.8436 -7.0712 124° Southeast 492 566 31,500 3,540 Level FlightAware UK
06:06 54.8380 -7.0590 124° Southeast 527 606 33,100  Climbing FlightAware
06:06 54.8114 -6.9868 124° Southeast 492 566 31,500 -2,940 Descending FlightAware UK
06:07 54.7872 -6.9236 124° Southeast 494 568 31,500 3,840 Level FlightAware UK
06:07 54.7830 -6.9150 124° Southeast 526 605 33,100  Climbing FlightAware
06:07 54.7550 -6.8393 124° Southeast 496 571 31,500 -2,400 Descending FlightAware UK
06:07 54.7227 -6.7554 124° Southeast 498 573 31,500 3,420 Level FlightAware UK
06:07 54.7220 -6.7570 124° Southeast 524 603 33,100  Climbing FlightAware
06:08 54.6822 -6.6513 124° Southeast 494 568 31,500 -1,440 Descending FlightAware UK
06:09 54.6233 -6.5084 125° Southeast 496 571 31,500  Level FlightAware UK
06:09 54.5976 -6.4475 126° Southeast 496 571 31,500  Level FlightAware UK
06:09 54.5718 -6.3867 126° Southeast 496 571 31,500  Level FlightAware UK
06:09 54.5465 -6.3259 126° Southeast 494 568 31,500 4,260 Level FlightAware UK
06:09 54.5530 -6.3420 126° Southeast 520 598 33,000  Climbing FlightAware
06:10 54.5214 -6.2661 126° Southeast 492 566 31,500 -2,760 Descending FlightAware UK
06:10 54.4964 -6.2066 126° Southeast 492 566 31,500 3,840 Level FlightAware UK
06:10 54.4960 -6.2050 126° Southeast 517 595 33,100  Climbing FlightAware
06:10 54.4630 -6.1271 126° Southeast 492 566 31,500 -2,760 Descending FlightAware UK
06:11 54.4376 -6.0670 126° Southeast 492 566 31,500 3,900 Level FlightAware UK
06:11 54.4330 -6.0560 126° Southeast 514 592 33,000  Climbing FlightAware
06:11 54.4041 -5.9876 126° Southeast 488 562 31,500 -2,460 Descending FlightAware UK
06:11 54.3790 -5.9281 126° Southeast 490 564 31,500 3,420 Level FlightAware UK
06:12 54.3710 -5.9100 126° Southeast 514 592 33,000  Climbing FlightAware
06:12 54.3455 -5.8490 126° Southeast 492 566 31,500 -2,700 Descending FlightAware UK
06:12 54.3203 -5.7897 126° Southeast 492 566 31,500 3,960 Level FlightAware UK
06:12 54.3150 -5.7790 126° Southeast 515 593 33,100  Climbing FlightAware
06:13 54.2866 -5.7108 126° Southeast 492 566 31,500 -2,700 Descending FlightAware UK
06:13 54.2612 -5.6517 126° Southeast 490 564 31,500 3,300 Level FlightAware UK
06:13 54.2510 -5.6310 126° Southeast 516 594 33,000  Climbing FlightAware
06:13 54.2272 -5.5729 126° Southeast 492 566 31,500 -2,760 Descending FlightAware UK
06:14 54.2018 -5.5138 126° Southeast 494 568 31,500 3,840 Level FlightAware UK
06:14 54.1950 -5.4990 126° Southeast 516 594 33,100  Climbing FlightAware
06:14 54.1678 -5.4352 126° Southeast 494 568 31,500 -2,760 Descending FlightAware UK
06:14 54.1423 -5.3764 127° Southeast 494 568 31,500 3,180 Level FlightAware UK
06:14 54.1310 -5.3520 127° Southeast 515 593 33,000 1,800 Climbing FlightAware
06:15 54.0760 -5.2260 127° Southeast 513 590 33,000 -1,380 Level FlightAware
06:16 54.0316 -5.1226 127° Southeast 494 568 31,500 120 Descending FlightAware UK
06:16 54.0120 -5.0810 127° Southeast 510 587 33,100  Climbing FlightAware
06:16 53.9808 -5.0075 127° Southeast 492 566 31,500 -2,640 Descending FlightAware UK
06:16 53.9557 -4.9499 127° Southeast 494 568 31,500 4,260 Level FlightAware UK
06:16 53.9550 -4.9490 127° Southeast 507 583 33,000  Climbing FlightAware
06:17 53.9226 -4.8730 127° Southeast 494 568 31,500  Descending FlightAware UK
06:17 53.8930 -4.8060 127° Southeast 505 581 33,000 480 Climbing FlightAware
06:18 53.8443 -4.6785 127° Southeast 494 568 32,000 900 Descending FlightAware UK
06:18 53.8430 -4.6750 127° Southeast 492 566 33,600 1,320 Climbing FlightAware
06:18 53.8036 -4.5592 127° Southeast 486 559 32,800 1,200 Descending FlightAware UK
06:19 53.7980 -4.5420 127° Southeast 492 566 34,400 720 Climbing FlightAware
06:19 53.7768 -4.4779 127° Southeast 490 564 33,100 -1,500 Descending FlightAware UK
06:19 53.7517 -4.3955 117° Southeast 496 571 33,400 4,020 Climbing FlightAware UK
06:19 53.7490 -4.3850 117° Southeast 495 570 35,000 240 Climbing FlightAware
06:20 53.7266 -4.3129 117° Southeast 494 568 33,500 -2,400 Descending FlightAware UK
06:20 53.7013 -4.2558 127° Southeast 494 568 33,500 4,800 Level FlightAware UK
06:20 53.6990 -4.2530 127° Southeast 512 589 35,100  Climbing FlightAware
06:20 53.6731 -4.2013 127° Southeast 496 571 33,500 -2,400 Descending FlightAware UK
06:21 53.6346 -4.1299 132° Southeast 492 566 33,500 3,060 Level FlightAware UK
06:21 53.6290 -4.1210 132° Southeast 514 592 35,000  Climbing FlightAware
06:21 53.5965 -4.0584 132° Southeast 494 568 33,500  Descending FlightAware UK
06:21 53.5660 -4.0020 132° Southeast 513 590 35,000 1,560 Climbing FlightAware
06:22 53.5070 -3.8890 131° Southeast 511 588 35,100 -1,200 Climbing FlightAware
06:23 53.4453 -3.7736 131° Southeast 490 564 33,500 -180 Descending FlightAware UK
06:23 53.4380 -3.7620 131° Southeast 511 588 35,000  Climbing FlightAware
06:23 53.3698 -3.6323 131° Southeast 488 562 33,500  Descending FlightAware UK
06:23 53.3690 -3.6320 131° Southeast 510 587 35,000  Climbing FlightAware
06:24 53.3417 -3.5780 131° Southeast 490 564 33,500  Descending FlightAware UK
06:24 53.3265 -3.5521 131° Southeast 513 590 35,000  Climbing FlightAware ADS-B
06:24 53.2851 -3.4716 131° Southeast 488 562 33,500 120 Descending FlightAware UK
06:25 53.2686 -3.4426 131° Southeast 514 592 35,100  Climbing FlightAware ADS-B
06:25 53.2379 -3.3826 131° Southeast 492 566 33,500 -240 Descending FlightAware UK
06:25 53.2174 -3.3444 131° Southeast 514 592 35,000  Climbing FlightAware ADS-B
06:25 53.1817 -3.2751 131° Southeast 492 566 33,500  Descending FlightAware UK
06:26 53.1689 -3.2518 131° Southeast 516 594 35,000 2,280 Climbing FlightAware ADS-B
06:26 53.1155 -3.1503 131° Southeast 515 593 35,100 -1,740 Climbing FlightAware ADS-B
06:26 53.0875 -3.0952 131° Southeast 496 571 33,500  Descending FlightAware UK
06:27 53.0682 -3.0574 131° Southeast 514 592 35,100 1,740 Climbing FlightAware ADS-B
06:27 53.0099 -2.9462 131° Southeast 514 592 35,000 -1,680 Descending FlightAware ADS-B
06:28 52.9764 -2.8783 131° Southeast 494 568 33,500  Descending FlightAware UK
06:28 52.9663 -2.8630 131° Southeast 518 596 35,000  Climbing FlightAware ADS-B
06:28 52.9360 -2.8102 131° Southeast 494 568 33,500  Descending FlightAware UK
06:28 52.9154 -2.7779 131° Southeast 522 601 35,000 1,980 Climbing FlightAware ADS-B
06:29 52.8546 -2.6763 135° Southeast 522 601 35,100 -1,740 Climbing FlightAware ADS-B
06:29 52.8239 -2.6235 135° Southeast 500 575 33,500 -240 Descending FlightAware UK
06:29 52.8009 -2.5854 135° Southeast 522 601 35,000  Climbing FlightAware ADS-B
06:30 52.7730 -2.5375 135° Southeast 502 578 33,500 120 Descending FlightAware UK
06:30 52.7390 -2.4805 135° Southeast 522 601 35,100 1,860 Climbing FlightAware ADS-B
06:30 52.6897 -2.3937 133° Southeast 517 595 35,100 -2,160 Level FlightAware ADS-B
06:31 52.6651 -2.3467 133° Southeast 498 573 33,500 -240 Descending FlightAware UK
06:31 52.6400 -2.3020 133° Southeast 517 595 35,000  Climbing FlightAware ADS-B
06:31 52.6084 -2.2396 133° Southeast 498 573 33,500 180 Descending FlightAware UK
06:32 52.5916 -2.2100 133° Southeast 517 595 35,100 2,100 Climbing FlightAware ADS-B
06:32 52.5413 -2.1157 131° Southeast 518 596 35,000  Descending FlightAware ADS-B
06:33 52.4918 -2.0251 132° Southeast 517 595 35,100 -1,680 Climbing FlightAware ADS-B
06:33 52.4558 -1.9574 132° Southeast 504 580 33,500 -240 Descending FlightAware UK
06:33 52.4436 -1.9382 132° Southeast 516 594 35,000  Climbing FlightAware ADS-B
06:33 52.4174 -1.8879 132° Southeast 502 578 33,500  Descending FlightAware UK
06:34 52.3940 -1.8458 132° Southeast 515 593 35,000  Climbing FlightAware ADS-B
06:34 52.3695 -1.8014 132° Southeast 502 578 33,500  Descending FlightAware UK
06:34 52.3446 -1.7566 132° Southeast 513 590 35,000  Climbing FlightAware ADS-B
06:35 52.3024 -1.6805 132° Southeast 506 582 33,500 120 Descending FlightAware UK
06:35 52.2906 -1.6589 132° Southeast 511 588 35,100  Climbing FlightAware ADS-B
06:35 52.2457 -1.5774 132° Southeast 506 582 33,500 -180 Descending FlightAware UK
06:35 52.2330 -1.5560 132° Southeast 508 585 35,000 2,460 Climbing FlightAware ADS-B
06:36 52.1847 -1.4681 132° Southeast 506 582 35,100 -2,040 Climbing FlightAware ADS-B
06:36 52.1613 -1.4236 132° Southeast 498 573 33,500  Descending FlightAware UK
06:36 52.1361 -1.3803 132° Southeast 506 582 35,100 1,800 Climbing FlightAware ADS-B
06:37 52.0858 -1.2875 131° Southeast 505 581 35,000 -120 Descending FlightAware ADS-B
06:37 52.0388 -1.2032 132° Southeast 505 581 35,000 -1,920 Level FlightAware ADS-B
06:38 52.0110 -1.1531 132° Southeast 494 568 33,500  Descending FlightAware UK
06:38 51.9915 -1.1189 132° Southeast 506 582 35,000  Climbing FlightAware ADS-B
06:38 51.9639 -1.0690 132° Southeast 500 575 33,500 180 Descending FlightAware UK
06:38 51.9438 -1.0349 132° Southeast 507 583 35,100  Climbing FlightAware ADS-B
06:39 51.9166 -0.9849 132° Southeast 500 575 33,500  Descending FlightAware UK
06:39 51.8962 -0.9506 132° Southeast 508 585 35,100 2,160 Climbing FlightAware ADS-B
06:39 51.8476 -0.8637 132° Southeast 508 585 35,100 -2,040 Level FlightAware ADS-B
06:40 51.8215 -0.8158 132° Southeast 498 573 33,500 -240 Descending FlightAware UK
06:40 51.7995 -0.7798 132° Southeast 509 586 35,000 2,160 Climbing FlightAware ADS-B
06:40 51.7511 -0.6932 132° Southeast 510 587 35,100 -1,980 Climbing FlightAware ADS-B
06:41 51.7255 -0.6477 132° Southeast 504 580 33,500 -240 Descending FlightAware UK
06:41 51.7020 -0.6064 132° Southeast 512 589 35,000  Climbing FlightAware ADS-B
06:41 51.6775 -0.5636 132° Southeast 504 580 33,500  Descending FlightAware UK
06:41 51.6533 -0.5225 132° Southeast 510 587 35,000 2,760 Climbing FlightAware ADS-B
06:42 51.6284 -0.4722 129° Southeast 509 586 35,000  Level FlightAware ADS-B
06:42 51.6122 -0.4308 122° Southeast 508 585 35,000  Level FlightAware ADS-B
06:42 51.5947 -0.3734 116° Southeast 505 581 35,000  Level FlightAware ADS-B
06:43 51.5815 -0.3060 107° East 502 578 35,000 60 Level FlightAware ADS-B
06:43 51.5661 -0.1859 102° East 501 577 35,100 -1,800 Climbing FlightAware ADS-B
06:43 51.5577 -0.1184 102° East 502 578 33,500  Descending FlightAware UK
06:44 51.5523 -0.0766 102° East 502 578 35,100 2,220 Climbing FlightAware ADS-B
06:44 51.5384 0.0328 102° East 502 578 35,100  Level FlightAware ADS-B
06:45 51.5240 0.1455 102° East 501 577 35,100  Level FlightAware ADS-B
06:45 51.5046 0.2681 104° East 503 579 35,100  Level FlightAware ADS-B
06:46 51.4853 0.3831 105° East 503 579 35,100 -1,920 Level FlightAware ADS-B
06:46 51.4749 0.4481 105° East 504 580 33,500  Descending FlightAware UK
06:46 51.4665 0.4985 105° East 504 580 35,100  Climbing FlightAware ADS-B
06:47 51.4536 0.5778 105° East 502 578 33,500 -240 Descending FlightAware UK
06:47 51.4484 0.6063 105° East 504 580 35,000  Climbing FlightAware ADS-B
06:47 51.4357 0.6857 105° East 498 573 33,500 180 Descending FlightAware UK
06:47 51.4297 0.7215 105° East 503 579 35,100 2,220 Climbing FlightAware ADS-B
06:48 51.4118 0.8298 105° East 504 580 35,000 -1,920 Descending FlightAware ADS-B
06:48 51.4003 0.9027 105° East 502 578 33,500 120 Descending FlightAware UK
06:48 51.3907 0.9594 105° East 505 581 35,100  Climbing FlightAware ADS-B
06:49 51.3749 1.0548 105° East 508 585 33,500  Descending FlightAware UK
06:49 51.3700 1.0820 105° East 504 580 35,100  Climbing FlightAware
06:49 51.3568 1.1629 105° East 504 580 33,500  Descending FlightAware UK
06:50 51.3420 1.2470 105° East 505 581 35,100  Climbing FlightAware
06:50 51.3312 1.3148 105° East 502 578 33,500 -2,880 Descending FlightAware UK
06:50 51.3202 1.3795 105° East 502 578 33,500 3,960 Level FlightAware UK
06:50 51.3180 1.3920 105° East 505 581 35,100  Climbing FlightAware
06:51 51.2890 1.5282 105° East 506 582 33,500  Descending FlightAware UK
06:51 51.2840 1.5450 105° East 501 577 35,100 6,840 Climbing FlightAware
06:51 51.2762 1.5723 115° Southeast 502 578 35,100 -4,620 Level FlightAware ADS-B
06:51 51.2602 1.6282 115° Southeast 506 582 33,500  Descending FlightAware UK
06:52 51.2450 1.6800 115° Southeast 500 575 35,100 3,060 Climbing FlightAware
06:52 51.2330 1.7198 116° Southeast 501 577 35,000  Descending FlightAware ADS-B
06:52 51.2030 1.8230 115° Southeast 500 575 35,100 60 Climbing FlightAware ADS-B
06:53 51.1652 1.9493 115° Southeast 501 577 35,100 -120 Level FlightAware ADS-B
06:54 51.1336 2.0556 115° Southeast 502 578 35,000 -2,040 Descending FlightAware ADS-B
06:54 51.1175 2.1089 115° Southeast 498 573 33,500 -2,760 Descending FlightAware UK
06:54 51.0996 2.1679 116° Southeast 498 573 33,500 2,160 Level FlightAware UK
06:55 51.0770 2.2420 116° Southeast 502 578 35,100 2,400 Climbing FlightAware
06:55 51.0600 2.2980 116° Southeast 503 579 35,100 -2,400 Level FlightAware ADS-B
06:55 51.0325 2.3878 116° Southeast 504 580 33,500 -1,920 Descending FlightAware UK
06:56 51.0081 2.4674 116° Southeast 506 582 33,500  Level FlightAware UK
06:56 50.9899 2.5272 116° Southeast 506 582 33,500 4,560 Level FlightAware UK
06:56 50.9880 2.5340 116° Southeast 501 577 35,100 2,220 Climbing FlightAware
06:57 50.9490 2.6590 116° Southeast 499 574 35,100  Level FlightAware
06:57 50.9040 2.8030 116° Southeast 497 572 35,100  Level FlightAware
06:58 50.8630 2.9370 116° Southeast 498 573 35,100 -1,440 Level FlightAware
06:59 50.8314 3.0380 116° Southeast 498 573 33,500  Descending FlightAware UK
06:59 50.8220 3.0670 116° Southeast 497 572 35,100  Climbing FlightAware
06:59 50.7821 3.1948 116° Southeast 496 571 33,500  Descending FlightAware UK
07:00 50.7770 3.2100 116° Southeast 498 573 35,100  Climbing FlightAware
07:00 50.7450 3.3117 116° Southeast 498 573 33,500  Descending FlightAware UK
07:00 50.7380 3.3300 116° Southeast 498 573 35,100  Climbing FlightAware
07:00 50.7139 3.4090 116° Southeast 498 573 33,500 -2,760 Descending FlightAware UK
07:01 50.6952 3.4673 117° Southeast 500 575 33,500 4,140 Level FlightAware UK
07:01 50.6960 3.4640 117° Southeast 498 573 35,100 1,920 Climbing FlightAware
07:02 50.6490 3.6090 117° Southeast 498 573 35,100  Level FlightAware
07:02 50.6050 3.7480 116° Southeast 497 572 35,100 -1,680 Level FlightAware
07:03 50.5832 3.8171 116° Southeast 500 575 33,500  Descending FlightAware UK
07:03 50.5580 3.8930 116° Southeast 496 571 35,100 1,380 Climbing FlightAware
07:04 50.5190 4.0120 117° Southeast 495 570 35,100 -1,320 Level FlightAware
07:04 50.4767 4.1433 117° Southeast 1 1 33,500  Descending FlightAware UK
07:04 50.4700 4.1620 117° Southeast 493 567 35,100  Climbing FlightAware
07:05 50.4382 4.2569 117° Southeast 1 1 33,500 -180 Descending FlightAware UK
07:05 50.4260 4.2950 117° Southeast 491 565 35,000  Climbing FlightAware
07:05 50.4055 4.3488 117° Southeast 1 1 33,500 120 Descending FlightAware UK
07:06 50.3870 4.4150 117° Southeast 490 564 35,100  Climbing FlightAware
07:06 50.3630 4.4837 117° Southeast 1 1 33,500  Descending FlightAware UK
07:07 50.3380 4.5620 117° Southeast 488 562 35,100 1,320 Climbing FlightAware
07:07 50.2980 4.6810 118° Southeast 487 560 35,000  Descending FlightAware
07:08 50.2570 4.8020 118° Southeast 486 559 35,100 60 Climbing FlightAware
07:09 50.2080 4.9480 118° Southeast 486 559 35,100  Level FlightAware
07:09 50.1660 5.0720 118° Southeast 486 559 35,100  Level FlightAware
07:10 50.1230 5.1960 118° Southeast 487 560 35,100  Level FlightAware
07:11 50.0820 5.3160 118° Southeast 487 560 35,100  Level FlightAware
07:11 50.0270 5.4760 118° Southeast 484 557 35,100  Level FlightAware
07:12 49.9880 5.5900 118° Southeast 483 556 35,100 -120 Level FlightAware
07:13 49.9440 5.7170 118° Southeast 481 554 35,000  Descending FlightAware
07:14 49.8980 5.8480 119° Southeast 481 554 35,100  Climbing FlightAware
07:16 49.7682 6.2129 119° Southeast  Level Estimated
07:16 49.7480 6.2710 119° Southeast 478 550 35,000  Level FlightAware
07:17 49.7050 6.3920 119° Southeast 479 551 35,100 60 Climbing FlightAware
07:17 49.6550 6.5300 119° Southeast 476 548 35,100  Level FlightAware
07:18 49.6120 6.6470 120° Southeast 479 551 35,100  Level FlightAware
07:19 49.5680 6.7650 120° Southeast 472 543 35,100  Level FlightAware
07:19 49.5100 6.8900 126° Southeast 475 547 35,100  Level FlightAware
07:20 49.4590 7.0030 125° Southeast 470 541 35,100  Level FlightAware
07:21 49.4010 7.1250 126° Southeast 474 545 35,100  Level FlightAware
07:21 49.3540 7.2260 126° Southeast 474 545 35,100  Level FlightAware
07:22 49.2990 7.3400 126° Southeast 473 544 35,100  Level FlightAware
07:23 49.2480 7.4510 125° Southeast 472 543 35,100  Level FlightAware
07:24 49.1910 7.5700 126° Southeast 469 540 35,100 -120 Level FlightAware
07:24 49.1410 7.6770 126° Southeast 466 536 35,000  Descending FlightAware
07:25 49.0830 7.7960 127° Southeast 465 535 35,100  Climbing FlightAware
07:26 49.0400 7.8850 126° Southeast 463 533 35,000  Descending FlightAware
07:26 48.9730 8.0210 127° Southeast 462 532 35,100 60 Climbing FlightAware
07:27 48.9240 8.1230 126° Southeast 461 531 35,100  Level FlightAware
07:28 48.8690 8.2370 126° Southeast 461 531 35,100  Level FlightAware
07:28 48.8250 8.3250 127° Southeast 462 532 35,100 -120 Level FlightAware
07:29 48.7670 8.4430 127° Southeast 465 535 35,000 -120 Descending FlightAware
07:30 48.7100 8.5570 127° Southeast 461 531 35,000 60 Level FlightAware
07:30 48.6680 8.6430 126° Southeast 463 533 35,100 60 Climbing FlightAware
07:31 48.5850 8.8080 127° Southeast 465 535 35,100  Level FlightAware
07:33 48.4270 9.1220 121° Southeast 467 537 35,100  Level FlightAware
07:34 48.4417 9.1714 121° Southeast  Level Estimated
07:35 48.3400 9.2940 127° Southeast 473 544 35,100  Level FlightAware
07:35 48.2860 9.4010 127° Southeast 472 543 35,100  Level FlightAware
07:36 48.2200 9.5060 133° Southeast 467 537 35,100  Level FlightAware
07:37 48.1330 9.5970 145° Southeast 466 536 35,100  Level FlightAware
07:38 48.0530 9.6820 145° Southeast 462 532 35,100  Level FlightAware
07:38 47.9880 9.7520 144° Southeast 464 534 35,100 -120 Level FlightAware
07:39 47.9110 9.8370 143° Southeast 472 543 35,000 -120 Descending FlightAware
07:40 47.8300 9.9230 145° Southeast 472 543 35,000  Level FlightAware
07:40 47.7470 10.0120 144° Southeast 472 543 35,000 60 Level FlightAware
07:41 47.6770 10.0830 146° Southeast 471 542 35,100 60 Climbing FlightAware
07:42 47.6040 10.1560 146° Southeast 472 543 35,100 -120 Level FlightAware
07:42 47.5510 10.2110 145° Southeast 473 544 35,000  Descending FlightAware
07:43 47.4780 10.2850 146° Southeast 468 539 35,100 60 Climbing FlightAware
07:44 47.3960 10.3690 145° Southeast 473 544 35,100  Level FlightAware
07:44 47.3330 10.4330 145° Southeast 471 542 35,100 -120 Level FlightAware
07:45 47.2560 10.5100 146° Southeast 468 539 35,000  Descending FlightAware
07:46 47.1470 10.6180 146° Southeast 464 534 35,100  Climbing FlightAware
07:47 47.0800 10.6860 145° Southeast 458 527 35,000 -120 Descending FlightAware
07:47 47.0180 10.7530 144° Southeast 462 532 35,000 60 Level FlightAware
07:48 46.9510 10.8550 134° Southeast 467 537 35,100  Climbing FlightAware
07:49 46.8940 10.9460 132° Southeast 468 539 35,000  Descending FlightAware
07:50 46.7980 11.0960 133° Southeast 468 539 35,100  Climbing FlightAware
07:51 46.7140 11.2270 133° Southeast 458 527 35,100 -120 Level FlightAware
07:51 46.6590 11.3130 133° Southeast 454 522 35,000  Descending FlightAware
07:52 46.5940 11.4140 133° Southeast 449 517 35,100 60 Climbing FlightAware
07:53 46.5360 11.5020 134° Southeast 450 518 35,100 -120 Level FlightAware
07:53 46.4790 11.5890 134° Southeast 442 509 35,000  Descending FlightAware
07:54 46.4150 11.6870 133° Southeast 428 493 35,100 60 Climbing FlightAware
07:55 46.3600 11.7710 133° Southeast 421 484 35,100 -120 Level FlightAware
07:56 46.2990 11.8630 134° Southeast 419 482 35,000 -120 Descending FlightAware
07:56 46.2460 11.9430 134° Southeast 417 480 35,000 60 Level FlightAware
07:57 46.1850 12.0370 133° Southeast 423 487 35,100 60 Climbing FlightAware
07:58 46.1320 12.1160 134° Southeast 421 484 35,100 -120 Level FlightAware
07:58 46.0770 12.1990 134° Southeast 421 484 35,000  Descending FlightAware
07:59 46.0160 12.2910 134° Southeast 423 487 35,100  Climbing FlightAware
08:00 45.9600 12.3730 134° Southeast 423 487 35,000 -120 Descending FlightAware
08:00 45.9040 12.4570 134° Southeast 424 488 35,000 60 Level FlightAware
08:01 45.8470 12.5540 130° Southeast 433 498 35,100 60 Climbing FlightAware
08:02 45.7970 12.6490 127° Southeast 436 502 35,100 -120 Level FlightAware
08:03 45.7420 12.7550 127° Southeast 437 503 35,000  Descending FlightAware
08:03 45.6950 12.8460 126° Southeast 436 502 35,100  Climbing FlightAware
08:04 45.6380 12.9530 127° Southeast 436 502 35,000 -120 Descending FlightAware
08:05 45.5910 13.0440 126° Southeast 434 499 35,000  Level FlightAware
08:05 45.5410 13.1390 127° Southeast 437 503 35,000 60 Level FlightAware
08:06 45.4870 13.2400 127° Southeast 433 498 35,100 60 Climbing FlightAware
08:07 45.4410 13.3270 127° Southeast 432 497 35,100  Level FlightAware
08:07 45.3830 13.4350 127° Southeast 432 497 35,100  Level FlightAware
08:08 45.3350 13.5260 127° Southeast 432 497 35,100 -120 Level FlightAware
08:09 45.2870 13.6150 127° Southeast 432 497 35,000  Descending FlightAware
08:10 45.2330 13.7160 127° Southeast 433 498 35,100 60 Climbing FlightAware
08:10 45.1770 13.8190 128° Southeast 436 502 35,100  Level FlightAware
08:11 45.1220 13.9220 127° Southeast 438 504 35,100  Level FlightAware
08:12 45.0740 14.0090 128° Southeast 444 511 35,100 -120 Level FlightAware
08:12 45.0260 14.0970 128° Southeast 445 512 35,000  Descending FlightAware
08:13 44.9640 14.2090 128° Southeast 446 513 35,100 60 Climbing FlightAware
08:14 44.9180 14.2950 127° Southeast 447 514 35,100 -120 Level FlightAware
08:14 44.8680 14.3840 128° Southeast 448 516 35,000  Descending FlightAware
08:15 44.8130 14.4830 128° Southeast 448 516 35,100 60 Climbing FlightAware
08:16 44.7550 14.5860 128° Southeast 450 518 35,100  Level FlightAware
08:17 44.6970 14.6900 128° Southeast 450 518 35,100 -120 Level FlightAware
08:17 44.6320 14.8040 129° Southeast 449 517 35,000  Descending FlightAware
08:18 44.5800 14.8980 128° Southeast 445 512 35,100  Climbing FlightAware
08:19 44.5040 15.0310 129° Southeast 452 520 35,100  Level FlightAware
08:20 44.4460 15.1340 128° Southeast 452 520 35,100  Level FlightAware
08:20 44.4010 15.2140 128° Southeast 453 521 35,100  Level FlightAware
08:21 44.3400 15.3210 129° Southeast 453 521 35,100 -120 Level FlightAware
08:22 44.2840 15.4170 129° Southeast 446 513 35,000 -120 Descending FlightAware
08:23 44.2230 15.5210 129° Southeast 446 513 35,000 60 Level FlightAware
08:23 44.1740 15.6080 128° Southeast 446 513 35,100 60 Climbing FlightAware
08:24 44.1190 15.7020 129° Southeast 446 513 35,100 -120 Level FlightAware
08:25 44.0600 15.8040 129° Southeast 447 514 35,000  Descending FlightAware
08:25 44.0060 15.8950 130° Southeast 450 518 35,100 60 Climbing FlightAware
08:26 43.9530 15.9880 128° Southeast 455 524 35,100  Level FlightAware
08:27 43.8910 16.0920 130° Southeast 459 528 35,100 -120 Level FlightAware
08:27 43.8360 16.1840 130° Southeast 461 531 35,000  Descending FlightAware
08:28 43.7780 16.2840 129° Southeast 461 531 35,100  Climbing FlightAware
08:29 43.7240 16.3730 130° Southeast 461 531 35,000 -120 Descending FlightAware
08:30 43.6690 16.4660 129° Southeast 461 531 35,000  Level FlightAware
08:30 43.6060 16.5710 130° Southeast 461 531 35,000  Level FlightAware
08:31 43.5520 16.6610 130° Southeast 463 533 35,000  Level FlightAware
08:32 43.4960 16.7550 129° Southeast 467 537 35,000  Level FlightAware
08:32 43.4340 16.8560 130° Southeast 470 541 35,000 60 Level FlightAware
08:33 43.3790 16.9480 129° Southeast 467 537 35,100 60 Climbing FlightAware
08:34 43.3170 17.0490 130° Southeast 473 544 35,100 -120 Level FlightAware
08:34 43.2610 17.1420 130° Southeast 475 547 35,000  Descending FlightAware
08:35 43.2060 17.2320 130° Southeast 474 545 35,100 60 Climbing FlightAware
08:36 43.1400 17.3380 130° Southeast 476 548 35,100  Level FlightAware
08:37 43.0830 17.4320 130° Southeast 474 545 35,100 -120 Level FlightAware
08:37 43.0290 17.5190 130° Southeast 475 547 35,000  Descending FlightAware
08:38 42.9630 17.6270 130° Southeast 479 551 35,100  Climbing FlightAware
08:39 42.9060 17.7170 131° Southeast 475 547 35,000 -120 Descending FlightAware
08:39 42.8410 17.8210 130° Southeast 478 550 35,000 60 Level FlightAware
08:40 42.7820 17.9160 130° Southeast 478 550 35,100  Climbing FlightAware
08:41 42.7230 18.0090 131° Southeast 477 549 35,000 -120 Descending FlightAware
08:41 42.6800 18.0800 129° Southeast 477 549 35,000  Level FlightAware
08:42 42.6000 18.2050 131° Southeast 484 557 35,000 480 Level FlightAware
08:43 42.5300 18.3090 132° Southeast 486 559 35,800 1,260 Climbing FlightAware
08:44 42.4680 18.3920 135° Southeast 480 552 36,800 780 Climbing FlightAware
08:44 42.4070 18.4750 135° Southeast 480 552 36,900 120 Climbing FlightAware
08:45 42.3260 18.5840 135° Southeast 482 555 37,000 60 Climbing FlightAware
08:46 42.2720 18.6570 135° Southeast 480 552 37,000 60 Level FlightAware
08:46 42.1990 18.7540 135° Southeast 479 551 37,100 60 Climbing FlightAware
08:47 42.1300 18.8470 135° Southeast 480 552 37,100  Level FlightAware
08:48 42.0680 18.9290 136° Southeast 480 552 37,100  Level FlightAware
08:49 41.9930 19.0270 136° Southeast 480 552 37,100  Level FlightAware
08:49 41.9390 19.0980 136° Southeast 479 551 37,100  Level FlightAware
08:50 41.8680 19.1920 135° Southeast 480 552 37,100  Level FlightAware
08:51 41.7990 19.2810 136° Southeast 482 555 37,100  Level FlightAware
08:51 41.7330 19.3660 136° Southeast 483 556 37,100  Level FlightAware
08:52 41.6680 19.4520 135° Southeast 486 559 37,100  Level FlightAware
08:53 41.5930 19.5470 137° Southeast 487 560 37,100  Level FlightAware
08:53 41.5320 19.6250 136° Southeast 487 560 37,100  Level FlightAware
08:54 41.4550 19.7200 137° Southeast 485 558 37,100  Level FlightAware
08:55 41.3910 19.8000 137° Southeast 484 557 37,100  Level FlightAware
08:55 41.3260 19.8830 136° Southeast 485 558 37,100  Level FlightAware
08:56 41.2500 19.9790 136° Southeast 485 558 37,100  Level FlightAware
08:57 41.1860 20.0590 137° Southeast 485 558 37,100 -120 Level FlightAware
08:57 41.1570 20.0950 137° Southeast 484 557 37,000  Descending FlightAware
08:58 41.0470 20.2310 137° Southeast 484 557 37,100 60 Climbing FlightAware
08:59 40.9830 20.3100 137° Southeast 485 558 37,100  Level FlightAware
09:00 40.9110 20.4000 137° Southeast 486 559 37,100  Level FlightAware
09:00 40.8420 20.4870 136° Southeast 485 558 37,100  Level FlightAware
09:01 40.7700 20.5750 137° Southeast 482 555 37,100  Level FlightAware
09:02 40.7060 20.6530 137° Southeast 481 554 37,100  Level FlightAware
09:04 40.5782 20.9135 123° Southeast  Level Estimated
09:05 40.5035 21.0648 123° Southeast  Level Estimated
09:06 40.4286 21.2158 123° Southeast  Level Estimated
09:07 40.3535 21.3664 123° Southeast  Level Estimated
09:08 40.2782 21.5167 123° Southeast  Level Estimated
09:09 40.2027 21.6667 123° Southeast  Level Estimated
09:10 40.1270 21.8163 123° Southeast  Level Estimated
09:11 40.0511 21.9656 124° Southeast  Level Estimated
09:11 39.9410 21.8200 124° Southeast 491 565 37,100  Level FlightAware
09:12 39.8170 22.0360 127° Southeast 489 563 37,100  Level FlightAware
09:13 39.7420 22.1640 127° Southeast 490 564 37,100  Level FlightAware
09:15 39.5470 22.4960 123° Southeast 492 566 37,100  Level FlightAware
09:16 39.5509 22.5443 123° Southeast  Level Estimated
09:17 39.4280 22.7000 127° Southeast 498 573 37,100  Level FlightAware
09:19 39.2926 22.9669 123° Southeast  Level Estimated
09:20 39.2171 23.1147 123° Southeast  Level Estimated
09:21 39.1414 23.2622 123° Southeast  Level Estimated
09:22 39.0655 23.4094 124° Southeast  Level Estimated
09:22 39.0050 23.4070 124° Southeast 494 568 37,100  Level FlightAware
09:22 38.9570 23.4870 128° Southeast 494 568 37,100  Level FlightAware
09:23 38.9020 23.5780 128° Southeast 495 570 37,100  Level FlightAware
09:24 38.8550 23.6580 127° Southeast 495 570 37,100  Level FlightAware
09:24 38.8080 23.7380 127° Southeast 495 570 37,100  Level FlightAware
09:25 38.6990 23.9070 130° Southeast 498 573 37,100  Level FlightAware
09:26 38.6180 24.0370 129° Southeast 499 574 37,100  Level FlightAware
09:27 38.5710 24.1140 128° Southeast 499 574 37,100  Level FlightAware
09:28 38.4720 24.2730 128° Southeast 499 574 37,100  Level FlightAware
09:29 38.4150 24.3650 128° Southeast 498 573 37,100  Level FlightAware
09:30 38.3370 24.4920 128° Southeast 498 573 37,100  Level FlightAware
09:31 38.2540 24.6210 129° Southeast 499 574 37,100  Level FlightAware
09:31 38.1770 24.7440 129° Southeast 499 574 37,100  Level FlightAware
09:32 38.1180 24.8370 129° Southeast 499 574 37,100  Level FlightAware
09:33 38.0230 24.9880 129° Southeast 497 572 37,100 -60 Level FlightAware
09:34 37.9630 25.0820 129° Southeast 496 571 37,000 -60 Descending FlightAware
09:36 37.8260 25.2960 129° Southeast 496 571 37,000  Level FlightAware
09:36 37.7800 25.3680 129° Southeast 497 572 37,100 60 Climbing FlightAware
09:37 37.7150 25.4680 129° Southeast 498 573 37,100  Level FlightAware
09:38 37.6540 25.5650 128° Southeast 498 573 37,100  Level FlightAware
09:38 37.5790 25.6790 130° Southeast 496 571 37,100  Level FlightAware
09:39 37.5140 25.7800 129° Southeast 496 571 37,100 -120 Level FlightAware
09:40 37.4570 25.8660 130° Southeast 495 570 37,000  Descending FlightAware
09:40 37.3910 25.9660 130° Southeast 494 568 37,100  Climbing FlightAware
09:41 37.3310 26.0590 129° Southeast 493 567 37,000 -120 Descending FlightAware
09:42 37.2730 26.1480 129° Southeast 493 567 37,000 60 Level FlightAware
09:43 37.2080 26.2450 130° Southeast 493 567 37,100 60 Climbing FlightAware
09:43 37.1500 26.3330 130° Southeast 494 568 37,100  Level FlightAware
09:44 37.0910 26.4210 130° Southeast 494 568 37,100  Level FlightAware
09:45 37.0260 26.5180 130° Southeast 494 568 37,100  Level FlightAware
09:45 36.9670 26.6080 129° Southeast 494 568 37,100 -120 Level FlightAware
09:46 36.9070 26.6980 130° Southeast 494 568 37,000  Descending FlightAware
09:47 36.8440 26.7920 130° Southeast 493 567 37,100 60 Climbing FlightAware
09:47 36.7900 26.8730 130° Southeast 492 566 37,100 -120 Level FlightAware
09:48 36.7180 26.9770 131° Southeast 491 565 37,000  Descending FlightAware
09:49 36.6120 27.1350 130° Southeast 492 566 37,100  Climbing FlightAware
09:50 36.5170 27.2760 130° Southeast 492 566 37,100 -60 Level FlightAware
09:51 36.4580 27.3620 130° Southeast 492 566 37,000  Descending FlightAware
09:52 36.3670 27.4930 131° Southeast 492 566 37,100  Climbing FlightAware
09:53 36.2900 27.6040 131° Southeast 491 565 37,100  Level FlightAware
09:54 36.2400 27.6780 130° Southeast 491 565 37,100  Level FlightAware
09:54 36.1790 27.7680 130° Southeast 491 565 37,100  Level FlightAware
09:55 36.1200 27.8530 131° Southeast 491 565 37,100  Level FlightAware
09:56 36.0620 27.9360 131° Southeast 490 564 37,100 -120 Level FlightAware
09:57 35.9750 28.0610 131° Southeast 490 564 37,000  Descending FlightAware
09:57 35.9130 28.1500 131° Southeast 492 566 37,100 60 Climbing FlightAware
09:58 35.8530 28.2350 131° Southeast 491 565 37,100 -120 Level FlightAware
09:59 35.7880 28.3280 131° Southeast 490 564 37,000 -120 Descending FlightAware
09:59 35.7290 28.4130 131° Southeast 490 564 37,000  Level FlightAware
10:00 35.6690 28.4970 131° Southeast 490 564 37,000  Level FlightAware
10:01 35.6010 28.5940 131° Southeast 489 563 37,000  Level FlightAware
10:01 35.5410 28.6780 131° Southeast 489 563 37,000 60 Level FlightAware
10:02 35.4760 28.7700 131° Southeast 489 563 37,100 60 Climbing FlightAware
10:03 35.4150 28.8540 132° Southeast 490 564 37,100 -120 Level FlightAware
10:03 35.3650 28.9250 131° Southeast 491 565 37,000  Descending FlightAware
10:04 35.2870 29.0330 131° Southeast 491 565 37,100 60 Climbing FlightAware
10:05 35.2330 29.1090 131° Southeast 493 567 37,100  Level FlightAware
10:06 35.1700 29.1970 131° Southeast 494 568 37,100 -120 Level FlightAware
10:06 35.1030 29.2870 132° Southeast 490 564 37,000  Descending FlightAware
10:07 35.0250 29.3990 130° Southeast 489 563 37,100  Climbing FlightAware
10:08 34.9540 29.4970 131° Southeast 489 563 37,000 -120 Descending FlightAware
10:09 34.9050 29.5690 130° Southeast 489 563 37,000 60 Level FlightAware
10:09 34.8330 29.6600 134° Southeast 487 560 37,100  Climbing FlightAware
10:11 34.7200 29.8130 132° Southeast 488 562 37,100  Level FlightAware
10:12 34.6380 29.9520 126° Southeast 492 566 37,100  Level FlightAware
10:12 34.5920 30.0530 119° Southeast 492 566 37,100  Level FlightAware
10:13 34.5360 30.1710 120° Southeast 491 565 37,100 -120 Level FlightAware
10:14 34.4880 30.2690 121° Southeast 492 566 37,000  Descending FlightAware
10:14 34.4370 30.3720 121° Southeast 498 573 37,100 60 Climbing FlightAware
10:15 34.3900 30.4680 121° Southeast 500 575 37,100 -120 Level FlightAware
10:16 34.3340 30.5810 121° Southeast 501 577 37,000 -120 Descending FlightAware
10:17 34.2860 30.6800 120° Southeast 502 578 37,000 60 Level FlightAware
10:17 34.2330 30.7860 121° Southeast 503 579 37,100  Climbing FlightAware
10:18 34.1850 30.8820 121° Southeast 503 579 37,000  Descending FlightAware
10:19 34.1360 30.9810 121° Southeast 503 579 37,100  Climbing FlightAware
10:19 34.0830 31.0870 121° Southeast 503 579 37,000 -120 Descending FlightAware
10:20 34.0350 31.1860 120° Southeast 503 579 37,000 60 Level FlightAware
10:21 33.9790 31.2940 122° Southeast 505 581 37,100  Climbing FlightAware
10:21 33.9420 31.3690 121° Southeast 506 582 37,000 -60 Descending FlightAware
10:23 33.8510 31.5490 121° Southeast 506 582 37,000  Level FlightAware
10:23 33.7960 31.6600 121° Southeast 504 580 37,000  Level FlightAware
10:24 33.7470 31.7550 122° Southeast 504 580 37,000  Level FlightAware
10:25 33.6970 31.8530 121° Southeast 503 579 37,000  Level FlightAware
10:25 33.6440 31.9580 121° Southeast 502 578 37,000  Level FlightAware
10:26 33.5970 32.0500 122° Southeast 500 575 37,000  Level FlightAware
10:27 33.5470 32.1470 122° Southeast 499 574 37,000 60 Level FlightAware
10:28 33.4900 32.2580 122° Southeast 499 574 37,100 60 Climbing FlightAware
10:28 33.4430 32.3500 121° Southeast 500 575 37,100 -120 Level FlightAware
10:29 33.4010 32.4300 122° Southeast 497 572 37,000 -120 Descending FlightAware
10:30 33.3440 32.5410 122° Southeast 498 573 37,000 -720 Level FlightAware
10:31 33.2320 32.7560 122° Southeast 505 581 35,500 -1,020 Descending FlightAware
10:32 33.1890 32.8390 122° Southeast 503 579 34,900 -1,080 Descending FlightAware
10:32 33.1340 32.9420 123° Southeast 500 575 34,100 -1,560 Descending FlightAware
10:33 33.0790 33.0480 122° Southeast 488 562 32,600 -2,160 Descending FlightAware
10:34 33.0320 33.1390 122° Southeast 480 552 31,100 -2,160 Descending FlightAware
10:35 32.9800 33.2360 123° Southeast 463 533 29,600 -2,640 Descending FlightAware
10:35 32.9340 33.3220 122° Southeast 467 537 27,400 -3,300 Descending FlightAware
10:36 32.8870 33.4100 122° Southeast 468 539 25,200 -2,340 Descending FlightAware
10:37 32.8360 33.5060 122° Southeast 452 520 24,100 -1,320 Descending FlightAware
10:37 32.7860 33.5980 123° Southeast 435 501 23,300 -1,080 Descending FlightAware
10:38 32.7440 33.6800 121° Southeast 417 480 22,600 -2,340 Descending FlightAware
10:39 32.6960 33.7700 122° Southeast 427 491 20,000 -3,300 Descending FlightAware
10:39 32.6600 33.8370 123° Southeast 425 489 18,200 -2,880 Descending FlightAware
10:40 32.6120 33.9240 123° Southeast 410 472 16,200 -2,700 Descending FlightAware
10:41 32.5670 34.0100 122° Southeast 399 459 14,200 -2,580 Descending FlightAware
10:42 32.5290 34.0790 123° Southeast 385 443 12,600 -2,340 Descending FlightAware
10:42 32.4800 34.1560 127° Southeast 362 417 10,900 -1,680 Descending FlightAware
10:43 32.4250 34.1930 150° Southeast 346 398 10,300 -480 Descending FlightAware
10:44 32.3700 34.2190 158° South 303 349 10,300 -480 Level FlightAware
10:44 32.3160 34.2540 151° Southeast 278 320 9,700 -960 Descending FlightAware
10:45 32.2920 34.2770 141° Southeast 276 318 9,200 -1,380 Descending FlightAware
10:45 32.2760 34.2920 142° Southeast 275 316 8,800 -720 Descending FlightAware
10:46 32.2500 34.3190 139° Southeast 275 316 8,700 -120 Descending FlightAware
10:46 32.2330 34.3350 141° Southeast 275 316 8,700  Level FlightAware
10:46 32.2080 34.3600 140° Southeast 275 316 8,700  Level FlightAware
10:47 32.1830 34.3840 141° Southeast 275 316 8,700  Level FlightAware
10:49 32.0970 34.6292 112° Southeast  Level Estimated
10:50 32.0441 34.7791 113° Southeast  Level Estimated
10:51 32.0095 34.8769 113° Southeast  Level Estimated
10:52 32.0095 34.8769 270° West  Level Estimated
10:53 32.0095 34.8769 270° West  Level Estimated
10:54 32.0095 34.8769 270° West  Level Estimated
10:55 32.0095 34.8769 270° West  Level Estimated
10:56 32.0095 34.8769 270° West  Level Estimated